sensor_id;sensor_type;location;lat;lon;timestamp;pressure;altitude;pressure_sealevel;temperature;humidity
36964;BME280;22878;48.616;35.326;2023-04-15T00:01:25;101131.53;;;6.67;100.00
36964;BME280;22878;48.616;35.326;2023-04-15T00:03:52;101131.83;;;6.67;100.00
36964;BME280;22878;48.616;35.326;2023-04-15T00:06:19;101137.19;;;6.66;100.00
36964;BME280;22878;48.616;35.326;2023-04-15T00:08:45;101134.89;;;6.66;100.00
36964;BME280;22878;48.616;35.326;2023-04-15T00:11:11;101134.21;;;6.64;100.00
36964;BME280;22878;48.616;35.326;2023-04-15T00:13:37;101133.04;;;6.65;100.00
36964;BME280;22878;48.616;35.326;2023-04-15T00:16:04;101132.92;;;6.64;100.00
36964;BME280;22878;48.616;35.326;2023-04-15T00:18:30;101130.86;;;6.64;100.00
36964;BME280;22878;48.616;35.326;2023-04-15T00:20:56;101135.07;;;6.64;100.00
36964;BME280;22878;48.616;35.326;2023-04-15T00:23:22;101135.88;;;6.64;100.00
36964;BME280;22878;48.616;35.326;2023-04-15T00:25:47;101142.54;;;6.63;100.00
36964;BME280;22878;48.616;35.326;2023-04-15T00:28:13;101142.52;;;6.61;100.00
36964;BME280;22878;48.616;35.326;2023-04-15T00:30:38;101141.92;;;6.62;100.00
36964;BME280;22878;48.616;35.326;2023-04-15T00:33:04;101140.45;;;6.61;100.00
36964;BME280;22878;48.616;35.326;2023-04-15T00:35:29;101139.54;;;6.61;100.00
36964;BME280;22878;48.616;35.326;2023-04-15T00:37:57;101141.78;;;6.64;100.00
36964;BME280;22878;48.616;35.326;2023-04-15T00:40:23;101138.69;;;6.61;100.00
36964;BME280;22878;48.616;35.326;2023-04-15T00:42:49;101145.09;;;6.64;100.00
36964;BME280;22878;48.616;35.326;2023-04-15T00:45:15;101143.77;;;6.67;100.00
36964;BME280;22878;48.616;35.326;2023-04-15T00:47:42;101150.08;;;6.63;100.00
36964;BME280;22878;48.616;35.326;2023-04-15T00:50:08;101147.27;;;6.63;100.00
36964;BME280;22878;48.616;35.326;2023-04-15T00:52:33;101144.44;;;6.60;100.00
36964;BME280;22878;48.616;35.326;2023-04-15T00:54:59;101142.22;;;6.61;100.00
36964;BME280;22878;48.616;35.326;2023-04-15T00:57:26;101144.11;;;6.62;100.00
36964;BME280;22878;48.616;35.326;2023-04-15T00:59:54;101147.39;;;6.58;100.00
36964;BME280;22878;48.616;35.326;2023-04-15T01:02:21;101150.71;;;6.60;100.00
36964;BME280;22878;48.616;35.326;2023-04-15T01:04:48;101152.52;;;6.58;100.00
36964;BME280;22878;48.616;35.326;2023-04-15T01:07:14;101154.77;;;6.57;100.00
36964;BME280;22878;48.616;35.326;2023-04-15T01:09:40;101156.23;;;6.55;100.00
36964;BME280;22878;48.616;35.326;2023-04-15T01:12:06;101154.98;;;6.58;100.00
36964;BME280;22878;48.616;35.326;2023-04-15T01:14:32;101156.98;;;6.59;100.00
36964;BME280;22878;48.616;35.326;2023-04-15T01:16:58;101158.73;;;6.58;100.00
36964;BME280;22878;48.616;35.326;2023-04-15T01:19:23;101154.27;;;6.61;100.00
36964;BME280;22878;48.616;35.326;2023-04-15T01:21:49;101151.92;;;6.59;100.00
36964;BME280;22878;48.616;35.326;2023-04-15T01:24:17;101152.11;;;6.57;100.00
36964;BME280;22878;48.616;35.326;2023-04-15T01:26:43;101154.34;;;6.54;100.00
36964;BME280;22878;48.616;35.326;2023-04-15T01:29:09;101160.83;;;6.52;100.00
36964;BME280;22878;48.616;35.326;2023-04-15T01:31:35;101163.88;;;6.53;100.00
36964;BME280;22878;48.616;35.326;2023-04-15T01:34:00;101165.87;;;6.55;100.00
36964;BME280;22878;48.616;35.326;2023-04-15T01:36:26;101170.71;;;6.54;100.00
36964;BME280;22878;48.616;35.326;2023-04-15T01:38:52;101170.69;;;6.52;100.00
36964;BME280;22878;48.616;35.326;2023-04-15T01:41:25;101170.59;;;6.54;100.00
36964;BME280;22878;48.616;35.326;2023-04-15T01:43:51;101166.77;;;6.57;100.00
36964;BME280;22878;48.616;35.326;2023-04-15T01:46:16;101166.38;;;6.54;100.00
36964;BME280;22878;48.616;35.326;2023-04-15T01:48:42;101165.77;;;6.55;100.00
36964;BME280;22878;48.616;35.326;2023-04-15T01:51:07;101169.11;;;6.53;100.00
36964;BME280;22878;48.616;35.326;2023-04-15T01:53:33;101171.55;;;6.52;100.00
36964;BME280;22878;48.616;35.326;2023-04-15T01:55:59;101175.40;;;6.50;100.00
36964;BME280;22878;48.616;35.326;2023-04-15T01:58:24;101177.58;;;6.51;100.00
36964;BME280;22878;48.616;35.326;2023-04-15T02:00:50;101174.13;;;6.53;100.00
36964;BME280;22878;48.616;35.326;2023-04-15T02:03:15;101172.77;;;6.53;100.00
36964;BME280;22878;48.616;35.326;2023-04-15T02:05:42;101171.70;;;6.53;100.00
36964;BME280;22878;48.616;35.326;2023-04-15T02:08:08;101176.04;;;6.53;100.00
36964;BME280;22878;48.616;35.326;2023-04-15T02:10:33;101176.86;;;6.52;100.00
36964;BME280;22878;48.616;35.326;2023-04-15T02:12:59;101174.32;;;6.50;100.00
36964;BME280;22878;48.616;35.326;2023-04-15T02:15:25;101178.71;;;6.52;100.00
36964;BME280;22878;48.616;35.326;2023-04-15T02:17:50;101181.34;;;6.55;100.00
36964;BME280;22878;48.616;35.326;2023-04-15T02:20:18;101182.00;;;6.54;100.00
36964;BME280;22878;48.616;35.326;2023-04-15T02:22:43;101184.91;;;6.55;100.00
36964;BME280;22878;48.616;35.326;2023-04-15T02:25:09;101189.64;;;6.53;100.00
36964;BME280;22878;48.616;35.326;2023-04-15T02:27:36;101196.17;;;6.53;100.00
36964;BME280;22878;48.616;35.326;2023-04-15T02:30:01;101192.46;;;6.53;100.00
36964;BME280;22878;48.616;35.326;2023-04-15T02:32:27;101198.48;;;6.54;100.00
36964;BME280;22878;48.616;35.326;2023-04-15T02:34:53;101201.78;;;6.51;100.00
36964;BME280;22878;48.616;35.326;2023-04-15T02:37:19;101198.13;;;6.51;100.00
36964;BME280;22878;48.616;35.326;2023-04-15T02:39:45;101202.84;;;6.53;100.00
36964;BME280;22878;48.616;35.326;2023-04-15T02:42:11;101201.84;;;6.49;100.00
36964;BME280;22878;48.616;35.326;2023-04-15T02:44:37;101203.06;;;6.46;100.00
36964;BME280;22878;48.616;35.326;2023-04-15T02:47:03;101202.54;;;6.44;100.00
36964;BME280;22878;48.616;35.326;2023-04-15T02:49:30;101207.19;;;6.45;100.00
36964;BME280;22878;48.616;35.326;2023-04-15T02:51:56;101207.58;;;6.42;100.00
36964;BME280;22878;48.616;35.326;2023-04-15T02:54:22;101204.23;;;6.40;100.00
36964;BME280;22878;48.616;35.326;2023-04-15T02:56:48;101200.77;;;6.40;100.00
36964;BME280;22878;48.616;35.326;2023-04-15T02:59:14;101201.21;;;6.41;100.00
36964;BME280;22878;48.616;35.326;2023-04-15T03:01:40;101197.75;;;6.34;100.00
36964;BME280;22878;48.616;35.326;2023-04-15T03:04:05;101211.59;;;6.35;100.00
36964;BME280;22878;48.616;35.326;2023-04-15T03:06:33;101215.51;;;6.28;100.00
36964;BME280;22878;48.616;35.326;2023-04-15T03:09:02;101222.08;;;6.32;100.00
36964;BME280;22878;48.616;35.326;2023-04-15T03:11:28;101224.09;;;6.30;100.00
36964;BME280;22878;48.616;35.326;2023-04-15T03:13:54;101221.40;;;6.32;100.00
36964;BME280;22878;48.616;35.326;2023-04-15T03:16:19;101225.36;;;6.31;100.00
36964;BME280;22878;48.616;35.326;2023-04-15T03:18:45;101227.02;;;6.28;100.00
36964;BME280;22878;48.616;35.326;2023-04-15T03:21:11;101228.40;;;6.32;100.00
36964;BME280;22878;48.616;35.326;2023-04-15T03:23:36;101232.41;;;6.30;100.00
36964;BME280;22878;48.616;35.326;2023-04-15T03:26:02;101242.14;;;6.28;100.00
36964;BME280;22878;48.616;35.326;2023-04-15T03:28:29;101246.25;;;6.29;100.00
36964;BME280;22878;48.616;35.326;2023-04-15T03:30:55;101249.27;;;6.29;100.00
36964;BME280;22878;48.616;35.326;2023-04-15T03:33:21;101249.73;;;6.33;100.00
36964;BME280;22878;48.616;35.326;2023-04-15T03:35:46;101249.64;;;6.28;100.00
36964;BME280;22878;48.616;35.326;2023-04-15T03:38:12;101251.73;;;6.30;100.00
36964;BME280;22878;48.616;35.326;2023-04-15T03:40:40;101261.58;;;6.29;100.00
36964;BME280;22878;48.616;35.326;2023-04-15T03:43:06;101267.72;;;6.27;100.00
36964;BME280;22878;48.616;35.326;2023-04-15T03:45:32;101269.85;;;6.28;100.00
36964;BME280;22878;48.616;35.326;2023-04-15T03:47:57;101269.35;;;6.31;100.00
36964;BME280;22878;48.616;35.326;2023-04-15T03:50:23;101269.52;;;6.32;100.00
36964;BME280;22878;48.616;35.326;2023-04-15T03:52:49;101273.39;;;6.30;100.00
36964;BME280;22878;48.616;35.326;2023-04-15T03:55:14;101279.78;;;6.27;100.00
36964;BME280;22878;48.616;35.326;2023-04-15T03:57:40;101278.80;;;6.32;100.00
36964;BME280;22878;48.616;35.326;2023-04-15T04:00:07;101286.83;;;6.33;100.00
36964;BME280;22878;48.616;35.326;2023-04-15T04:02:33;101291.39;;;6.36;100.00
36964;BME280;22878;48.616;35.326;2023-04-15T04:04:59;101294.25;;;6.37;100.00
36964;BME280;22878;48.616;35.326;2023-04-15T04:07:25;101291.81;;;6.34;100.00
36964;BME280;22878;48.616;35.326;2023-04-15T04:09:50;101293.58;;;6.35;100.00
36964;BME280;22878;48.616;35.326;2023-04-15T04:12:16;101300.67;;;6.34;100.00
36964;BME280;22878;48.616;35.326;2023-04-15T04:14:41;101304.75;;;6.33;100.00
36964;BME280;22878;48.616;35.326;2023-04-15T04:17:07;101301.90;;;6.33;100.00
36964;BME280;22878;48.616;35.326;2023-04-15T04:19:33;101298.35;;;6.36;100.00
36964;BME280;22878;48.616;35.326;2023-04-15T04:21:58;101304.14;;;6.38;100.00
36964;BME280;22878;48.616;35.326;2023-04-15T04:24:24;101302.31;;;6.43;100.00
36964;BME280;22878;48.616;35.326;2023-04-15T04:26:52;101306.73;;;6.46;100.00
36964;BME280;22878;48.616;35.326;2023-04-15T04:29:18;101311.80;;;6.46;100.00
36964;BME280;22878;48.616;35.326;2023-04-15T04:31:43;101316.02;;;6.50;100.00
36964;BME280;22878;48.616;35.326;2023-04-15T04:34:10;101321.61;;;6.51;100.00
36964;BME280;22878;48.616;35.326;2023-04-15T04:36:35;101325.33;;;6.50;100.00
36964;BME280;22878;48.616;35.326;2023-04-15T04:39:01;101325.78;;;6.51;100.00
36964;BME280;22878;48.616;35.326;2023-04-15T04:41:26;101330.83;;;6.54;100.00
36964;BME280;22878;48.616;35.326;2023-04-15T04:43:52;101336.02;;;6.62;100.00
36964;BME280;22878;48.616;35.326;2023-04-15T04:46:18;101339.11;;;6.61;100.00
36964;BME280;22878;48.616;35.326;2023-04-15T04:48:43;101341.17;;;6.61;100.00
36964;BME280;22878;48.616;35.326;2023-04-15T04:51:09;101338.98;;;6.61;100.00
36964;BME280;22878;48.616;35.326;2023-04-15T04:53:34;101343.39;;;6.63;100.00
36964;BME280;22878;48.616;35.326;2023-04-15T04:56:02;101346.74;;;6.66;100.00
36964;BME280;22878;48.616;35.326;2023-04-15T04:58:27;101347.47;;;6.69;100.00
36964;BME280;22878;48.616;35.326;2023-04-15T05:00:53;101351.70;;;6.65;100.00
36964;BME280;22878;48.616;35.326;2023-04-15T05:03:18;101352.65;;;6.66;100.00
36964;BME280;22878;48.616;35.326;2023-04-15T05:05:44;101354.36;;;6.68;100.00
36964;BME280;22878;48.616;35.326;2023-04-15T05:08:10;101357.72;;;6.72;100.00
36964;BME280;22878;48.616;35.326;2023-04-15T05:10:35;101357.88;;;6.77;100.00
36964;BME280;22878;48.616;35.326;2023-04-15T05:13:01;101355.77;;;6.77;100.00
36964;BME280;22878;48.616;35.326;2023-04-15T05:15:26;101354.44;;;6.77;100.00
36964;BME280;22878;48.616;35.326;2023-04-15T05:17:52;101358.60;;;6.81;100.00
36964;BME280;22878;48.616;35.326;2023-04-15T05:20:20;101363.41;;;6.84;100.00
36964;BME280;22878;48.616;35.326;2023-04-15T05:22:45;101356.05;;;6.82;100.00
36964;BME280;22878;48.616;35.326;2023-04-15T05:25:11;101358.36;;;6.82;100.00
36964;BME280;22878;48.616;35.326;2023-04-15T05:27:36;101361.36;;;6.82;100.00
36964;BME280;22878;48.616;35.326;2023-04-15T05:30:02;101361.45;;;6.88;100.00
36964;BME280;22878;48.616;35.326;2023-04-15T05:32:28;101364.00;;;6.89;100.00
36964;BME280;22878;48.616;35.326;2023-04-15T05:34:53;101369.35;;;6.90;100.00
36964;BME280;22878;48.616;35.326;2023-04-15T05:37:19;101377.85;;;6.90;100.00
36964;BME280;22878;48.616;35.326;2023-04-15T05:39:47;101376.65;;;6.89;100.00
36964;BME280;22878;48.616;35.326;2023-04-15T05:42:13;101377.17;;;6.92;100.00
36964;BME280;22878;48.616;35.326;2023-04-15T05:44:38;101376.43;;;6.91;100.00
36964;BME280;22878;48.616;35.326;2023-04-15T05:47:04;101374.83;;;6.97;100.00
36964;BME280;22878;48.616;35.326;2023-04-15T05:49:31;101376.36;;;7.00;100.00
36964;BME280;22878;48.616;35.326;2023-04-15T05:51:56;101377.88;;;7.02;100.00
36964;BME280;22878;48.616;35.326;2023-04-15T05:54:22;101377.98;;;7.08;100.00
36964;BME280;22878;48.616;35.326;2023-04-15T05:56:48;101377.81;;;7.18;100.00
36964;BME280;22878;48.616;35.326;2023-04-15T05:59:13;101380.96;;;7.27;100.00
36964;BME280;22878;48.616;35.326;2023-04-15T06:01:39;101378.24;;;7.26;100.00
36964;BME280;22878;48.616;35.326;2023-04-15T06:04:04;101384.56;;;7.22;100.00
36964;BME280;22878;48.616;35.326;2023-04-15T06:06:30;101389.73;;;7.33;100.00
36964;BME280;22878;48.616;35.326;2023-04-15T06:08:56;101394.52;;;7.45;100.00
36964;BME280;22878;48.616;35.326;2023-04-15T06:11:22;101395.87;;;7.50;100.00
36964;BME280;22878;48.616;35.326;2023-04-15T06:17:10;101396.52;;;7.56;100.00
36964;BME280;22878;48.616;35.326;2023-04-15T06:19:35;101400.33;;;7.55;100.00
36964;BME280;22878;48.616;35.326;2023-04-15T06:22:01;101403.25;;;7.52;100.00
36964;BME280;22878;48.616;35.326;2023-04-15T06:24:27;101405.61;;;7.49;100.00
36964;BME280;22878;48.616;35.326;2023-04-15T06:26:53;101407.34;;;7.60;100.00
36964;BME280;22878;48.616;35.326;2023-04-15T06:29:18;101409.21;;;7.55;100.00
36964;BME280;22878;48.616;35.326;2023-04-15T06:31:46;101407.30;;;7.59;100.00
36964;BME280;22878;48.616;35.326;2023-04-15T06:34:15;101411.02;;;7.59;100.00
36964;BME280;22878;48.616;35.326;2023-04-15T06:36:41;101418.29;;;7.53;100.00
36964;BME280;22878;48.616;35.326;2023-04-15T06:39:06;101418.40;;;7.50;100.00
36964;BME280;22878;48.616;35.326;2023-04-15T06:41:32;101421.65;;;7.46;100.00
36964;BME280;22878;48.616;35.326;2023-04-15T06:43:58;101425.27;;;7.48;100.00
36964;BME280;22878;48.616;35.326;2023-04-15T06:46:24;101425.30;;;7.53;100.00
36964;BME280;22878;48.616;35.326;2023-04-15T06:48:50;101419.08;;;7.53;100.00
36964;BME280;22878;48.616;35.326;2023-04-15T06:54:38;101424.68;;;7.59;100.00
36964;BME280;22878;48.616;35.326;2023-04-15T06:57:04;101423.80;;;7.70;100.00
36964;BME280;22878;48.616;35.326;2023-04-15T06:59:31;101426.85;;;7.83;100.00
36964;BME280;22878;48.616;35.326;2023-04-15T07:01:57;101431.52;;;7.87;100.00
36964;BME280;22878;48.616;35.326;2023-04-15T07:04:22;101432.25;;;7.89;100.00
36964;BME280;22878;48.616;35.326;2023-04-15T07:06:48;101445.27;;;7.91;100.00
36964;BME280;22878;48.616;35.326;2023-04-15T07:09:14;101450.46;;;7.88;100.00
36964;BME280;22878;48.616;35.326;2023-04-15T07:11:39;101452.80;;;8.00;100.00
36964;BME280;22878;48.616;35.326;2023-04-15T07:14:05;101452.45;;;8.02;100.00
36964;BME280;22878;48.616;35.326;2023-04-15T07:16:31;101453.30;;;8.07;100.00
36964;BME280;22878;48.616;35.326;2023-04-15T07:18:56;101454.65;;;8.09;100.00
36964;BME280;22878;48.616;35.326;2023-04-15T07:21:23;101447.73;;;8.13;100.00
36964;BME280;22878;48.616;35.326;2023-04-15T07:24:07;101451.16;;;8.13;100.00
36964;BME280;22878;48.616;35.326;2023-04-15T07:26:34;101451.84;;;8.25;100.00
36964;BME280;22878;48.616;35.326;2023-04-15T07:29:00;101454.52;;;8.30;100.00
36964;BME280;22878;48.616;35.326;2023-04-15T07:31:25;101459.42;;;8.31;100.00
36964;BME280;22878;48.616;35.326;2023-04-15T07:33:51;101462.98;;;8.34;100.00
36964;BME280;22878;48.616;35.326;2023-04-15T07:36:17;101468.90;;;8.28;100.00
36964;BME280;22878;48.616;35.326;2023-04-15T07:38:43;101469.38;;;8.26;100.00
36964;BME280;22878;48.616;35.326;2023-04-15T07:41:08;101475.86;;;8.38;100.00
36964;BME280;22878;48.616;35.326;2023-04-15T07:43:34;101480.04;;;8.48;100.00
36964;BME280;22878;48.616;35.326;2023-04-15T07:46:00;101485.85;;;8.46;100.00
36964;BME280;22878;48.616;35.326;2023-04-15T07:48:25;101489.63;;;8.48;100.00
36964;BME280;22878;48.616;35.326;2023-04-15T07:50:51;101488.52;;;8.51;100.00
36964;BME280;22878;48.616;35.326;2023-04-15T07:53:17;101487.20;;;8.57;100.00
36964;BME280;22878;48.616;35.326;2023-04-15T07:55:42;101482.80;;;8.71;100.00
36964;BME280;22878;48.616;35.326;2023-04-15T07:58:08;101489.05;;;8.70;100.00
36964;BME280;22878;48.616;35.326;2023-04-15T08:00:33;101485.29;;;8.73;100.00
36964;BME280;22878;48.616;35.326;2023-04-15T08:02:59;101489.06;;;8.85;100.00
36964;BME280;22878;48.616;35.326;2023-04-15T08:05:24;101488.65;;;8.85;100.00
36964;BME280;22878;48.616;35.326;2023-04-15T08:07:50;101492.23;;;8.96;100.00
36964;BME280;22878;48.616;35.326;2023-04-15T08:10:16;101494.34;;;8.89;100.00
36964;BME280;22878;48.616;35.326;2023-04-15T08:12:41;101496.13;;;8.98;100.00
36964;BME280;22878;48.616;35.326;2023-04-15T08:15:07;101495.46;;;8.96;100.00
36964;BME280;22878;48.616;35.326;2023-04-15T08:17:33;101492.48;;;8.96;100.00
36964;BME280;22878;48.616;35.326;2023-04-15T08:19:59;101495.58;;;8.87;100.00
36964;BME280;22878;48.616;35.326;2023-04-15T08:22:25;101491.06;;;8.78;100.00
36964;BME280;22878;48.616;35.326;2023-04-15T08:24:50;101492.54;;;8.88;100.00
36964;BME280;22878;48.616;35.326;2023-04-15T08:27:16;101491.19;;;8.88;100.00
36964;BME280;22878;48.616;35.326;2023-04-15T08:29:42;101492.78;;;8.85;100.00
36964;BME280;22878;48.616;35.326;2023-04-15T08:32:08;101489.64;;;8.83;100.00
36964;BME280;22878;48.616;35.326;2023-04-15T08:34:33;101484.86;;;8.87;100.00
36964;BME280;22878;48.616;35.326;2023-04-15T08:36:59;101485.25;;;8.83;100.00
36964;BME280;22878;48.616;35.326;2023-04-15T08:39:25;101488.15;;;8.92;100.00
36964;BME280;22878;48.616;35.326;2023-04-15T08:44:22;101485.06;;;9.03;100.00
36964;BME280;22878;48.616;35.326;2023-04-15T08:46:48;101483.47;;;9.02;100.00
36964;BME280;22878;48.616;35.326;2023-04-15T08:49:14;101483.95;;;9.06;100.00
36964;BME280;22878;48.616;35.326;2023-04-15T08:51:42;101484.27;;;9.04;100.00
36964;BME280;22878;48.616;35.326;2023-04-15T08:54:08;101485.71;;;9.04;100.00
36964;BME280;22878;48.616;35.326;2023-04-15T08:56:34;101481.95;;;9.08;100.00
36964;BME280;22878;48.616;35.326;2023-04-15T08:59:01;101480.14;;;9.15;100.00
36964;BME280;22878;48.616;35.326;2023-04-15T09:01:26;101484.73;;;9.13;100.00
36964;BME280;22878;48.616;35.326;2023-04-15T09:03:52;101492.77;;;9.18;100.00
36964;BME280;22878;48.616;35.326;2023-04-15T09:06:22;101486.80;;;9.33;100.00
36964;BME280;22878;48.616;35.326;2023-04-15T09:08:49;101488.31;;;9.48;100.00
36964;BME280;22878;48.616;35.326;2023-04-15T09:11:15;101496.22;;;9.51;100.00
36964;BME280;22878;48.616;35.326;2023-04-15T09:13:42;101502.11;;;9.50;100.00
36964;BME280;22878;48.616;35.326;2023-04-15T09:16:07;101499.13;;;9.42;100.00
36964;BME280;22878;48.616;35.326;2023-04-15T09:18:34;101505.44;;;9.42;100.00
36964;BME280;22878;48.616;35.326;2023-04-15T09:23:31;101508.42;;;9.43;100.00
36964;BME280;22878;48.616;35.326;2023-04-15T09:25:57;101512.02;;;9.55;100.00
36964;BME280;22878;48.616;35.326;2023-04-15T09:28:24;101515.08;;;9.61;100.00
36964;BME280;22878;48.616;35.326;2023-04-15T09:30:59;101508.96;;;9.51;100.00
36964;BME280;22878;48.616;35.326;2023-04-15T09:33:26;101514.20;;;9.68;100.00
36964;BME280;22878;48.616;35.326;2023-04-15T09:36:03;101519.89;;;9.71;100.00
36964;BME280;22878;48.616;35.326;2023-04-15T09:38:30;101520.56;;;9.68;100.00
36964;BME280;22878;48.616;35.326;2023-04-15T09:40:56;101513.98;;;9.78;100.00
36964;BME280;22878;48.616;35.326;2023-04-15T09:43:25;101513.59;;;9.81;100.00
36964;BME280;22878;48.616;35.326;2023-04-15T09:46:01;101516.00;;;9.91;100.00
36964;BME280;22878;48.616;35.326;2023-04-15T09:48:27;101517.85;;;9.95;100.00
36964;BME280;22878;48.616;35.326;2023-04-15T09:50:57;101515.02;;;9.85;100.00
36964;BME280;22878;48.616;35.326;2023-04-15T09:53:24;101518.55;;;9.77;100.00
36964;BME280;22878;48.616;35.326;2023-04-15T09:55:51;101520.04;;;9.72;100.00
36964;BME280;22878;48.616;35.326;2023-04-15T09:58:18;101524.33;;;9.78;100.00
36964;BME280;22878;48.616;35.326;2023-04-15T10:00:46;101524.37;;;9.86;100.00
36964;BME280;22878;48.616;35.326;2023-04-15T10:03:15;101523.77;;;9.75;100.00
36964;BME280;22878;48.616;35.326;2023-04-15T10:05:43;101534.27;;;9.81;100.00
36964;BME280;22878;48.616;35.326;2023-04-15T10:08:08;101538.36;;;9.73;100.00
36964;BME280;22878;48.616;35.326;2023-04-15T10:10:35;101539.33;;;9.64;100.00
36964;BME280;22878;48.616;35.326;2023-04-15T10:13:01;101545.54;;;9.61;100.00
36964;BME280;22878;48.616;35.326;2023-04-15T10:15:27;101559.38;;;9.61;100.00
36964;BME280;22878;48.616;35.326;2023-04-15T10:17:55;101560.63;;;9.60;100.00
36964;BME280;22878;48.616;35.326;2023-04-15T10:20:22;101556.25;;;9.56;100.00
36964;BME280;22878;48.616;35.326;2023-04-15T10:22:48;101555.79;;;9.68;100.00
36964;BME280;22878;48.616;35.326;2023-04-15T10:25:15;101557.37;;;9.56;100.00
36964;BME280;22878;48.616;35.326;2023-04-15T10:27:41;101561.20;;;9.63;100.00
36964;BME280;22878;48.616;35.326;2023-04-15T10:30:07;101564.39;;;9.64;100.00
36964;BME280;22878;48.616;35.326;2023-04-15T10:32:33;101562.78;;;9.74;100.00
36964;BME280;22878;48.616;35.326;2023-04-15T10:35:00;101565.65;;;9.71;100.00
36964;BME280;22878;48.616;35.326;2023-04-15T10:37:34;101572.39;;;9.77;100.00
36964;BME280;22878;48.616;35.326;2023-04-15T10:40:24;101583.11;;;9.71;100.00
36964;BME280;22878;48.616;35.326;2023-04-15T10:42:57;101587.55;;;9.62;100.00
36964;BME280;22878;48.616;35.326;2023-04-15T10:45:31;101580.88;;;9.60;100.00
36964;BME280;22878;48.616;35.326;2023-04-15T10:47:58;101584.83;;;9.67;100.00
36964;BME280;22878;48.616;35.326;2023-04-15T10:50:25;101584.48;;;9.66;100.00
36964;BME280;22878;48.616;35.326;2023-04-15T10:52:52;101587.98;;;9.62;100.00
36964;BME280;22878;48.616;35.326;2023-04-15T10:55:23;101588.49;;;9.67;100.00
36964;BME280;22878;48.616;35.326;2023-04-15T10:57:58;101590.71;;;9.67;100.00
36964;BME280;22878;48.616;35.326;2023-04-15T11:00:28;101588.90;;;9.64;100.00
36964;BME280;22878;48.616;35.326;2023-04-15T11:02:55;101588.81;;;9.61;100.00
36964;BME280;22878;48.616;35.326;2023-04-15T11:08:05;101593.74;;;9.61;100.00
36964;BME280;22878;48.616;35.326;2023-04-15T11:13:03;101592.19;;;9.62;100.00
36964;BME280;22878;48.616;35.326;2023-04-15T11:18:14;101588.80;;;9.68;100.00
36964;BME280;22878;48.616;35.326;2023-04-15T11:20:42;101584.88;;;9.77;100.00
36964;BME280;22878;48.616;35.326;2023-04-15T11:23:14;101582.53;;;9.72;100.00
36964;BME280;22878;48.616;35.326;2023-04-15T11:25:40;101575.03;;;9.75;100.00
36964;BME280;22878;48.616;35.326;2023-04-15T11:28:06;101578.74;;;9.65;100.00
36964;BME280;22878;48.616;35.326;2023-04-15T11:30:34;101578.20;;;9.65;100.00
36964;BME280;22878;48.616;35.326;2023-04-15T11:33:03;101574.42;;;9.60;100.00
36964;BME280;22878;48.616;35.326;2023-04-15T11:35:29;101574.52;;;9.57;100.00
36964;BME280;22878;48.616;35.326;2023-04-15T11:37:55;101572.81;;;9.59;100.00
36964;BME280;22878;48.616;35.326;2023-04-15T11:40:25;101570.63;;;9.59;100.00
36964;BME280;22878;48.616;35.326;2023-04-15T11:43:12;101569.48;;;9.64;100.00
36964;BME280;22878;48.616;35.326;2023-04-15T11:45:51;101570.61;;;9.65;100.00
36964;BME280;22878;48.616;35.326;2023-04-15T11:48:18;101571.71;;;9.64;100.00
36964;BME280;22878;48.616;35.326;2023-04-15T11:50:44;101570.02;;;9.65;100.00
36964;BME280;22878;48.616;35.326;2023-04-15T11:53:12;101568.91;;;9.72;100.00
36964;BME280;22878;48.616;35.326;2023-04-15T11:55:56;101570.16;;;9.76;100.00
36964;BME280;22878;48.616;35.326;2023-04-15T11:58:22;101565.46;;;9.80;100.00
36964;BME280;22878;48.616;35.326;2023-04-15T12:09:08;101572.80;;;9.68;100.00
36964;BME280;22878;48.616;35.326;2023-04-15T12:11:39;101572.07;;;9.63;100.00
36964;BME280;22878;48.616;35.326;2023-04-15T12:14:09;101572.27;;;9.60;100.00
36964;BME280;22878;48.616;35.326;2023-04-15T12:16:40;101569.84;;;9.62;100.00
36964;BME280;22878;48.616;35.326;2023-04-15T12:19:09;101568.27;;;9.64;100.00
36964;BME280;22878;48.616;35.326;2023-04-15T12:21:37;101570.27;;;9.58;100.00
36964;BME280;22878;48.616;35.326;2023-04-15T12:24:06;101560.98;;;9.61;100.00
36964;BME280;22878;48.616;35.326;2023-04-15T12:26:44;101558.78;;;9.70;100.00
36964;BME280;22878;48.616;35.326;2023-04-15T12:29:11;101565.67;;;9.80;100.00
36964;BME280;22878;48.616;35.326;2023-04-15T12:34:34;101563.10;;;9.61;100.00
36964;BME280;22878;48.616;35.326;2023-04-15T12:37:02;101565.80;;;9.66;100.00
36964;BME280;22878;48.616;35.326;2023-04-15T12:39:30;101562.88;;;9.73;100.00
36964;BME280;22878;48.616;35.326;2023-04-15T12:41:57;101562.52;;;9.75;100.00
36964;BME280;22878;48.616;35.326;2023-04-15T12:44:24;101569.95;;;9.74;100.00
36964;BME280;22878;48.616;35.326;2023-04-15T12:46:51;101563.88;;;9.67;100.00
36964;BME280;22878;48.616;35.326;2023-04-15T12:49:17;101563.55;;;9.67;100.00
36964;BME280;22878;48.616;35.326;2023-04-15T12:51:48;101570.09;;;9.73;100.00
36964;BME280;22878;48.616;35.326;2023-04-15T12:54:15;101570.27;;;9.85;100.00
36964;BME280;22878;48.616;35.326;2023-04-15T12:56:41;101570.36;;;9.82;100.00
36964;BME280;22878;48.616;35.326;2023-04-15T12:59:06;101569.52;;;9.86;100.00
36964;BME280;22878;48.616;35.326;2023-04-15T13:01:32;101567.95;;;9.87;100.00
36964;BME280;22878;48.616;35.326;2023-04-15T13:03:57;101569.01;;;9.76;100.00
36964;BME280;22878;48.616;35.326;2023-04-15T13:06:23;101573.46;;;9.75;100.00
36964;BME280;22878;48.616;35.326;2023-04-15T13:08:49;101575.73;;;9.77;100.00